x

9418767 - North Spit, Ca (hbyc1) Weather Station

7:36am - Fri 24th Feb 2017 All times are PST. -8 hours from GMT.

  • Wind
    6mph, 8mph gusts
  • Sea Temp 52°f
  • Air Temp 40°f
  • Sea Pressure 1025.1mb
  • 9418767 - North Spit, Ca
  • 9418767 - North Spit, Ca

More Historic Weather Station data

Upgrade to MSW Pro to gain access to the past 30 days of data for over 8000 Wavebouys and Weather Stations around the globe.

Join Pro

Comparision Forecast

View Surf forecast
   
Fri 02/24 7:36am 6 8 mph 1025.1mb 52f 40f
7:30am 5 7 mph 1025.1mb 52f 40f
7:24am 5 6 mph 1025mb 52f 39f
7:18am 3 5 mph 1025mb 52f 39f
7:12am 3 6 mph 1024.9mb 52f 39f
7:06am 5 6 mph 1024.8mb 52f 38f
7:00am 6 7 mph 1024.8mb 52f 38f
6:36am 5 6 mph 1024.7mb 52f 39f
6:30am 5 7 mph 1024.7mb 52f 39f
6:24am 7 8 mph 1024.7mb 52f 38f
6:18am 7 9 mph 1024.6mb 52f 38f
6:12am 8 9 mph 1024.7mb 52f 38f
6:06am 7 8 mph 1024.7mb 52f 38f
6:00am 6 8 mph 1024.7mb 52f 38f
5:36am 6 7 mph 1024.7mb 51f 38f
5:30am 5 6 mph 1024.8mb 51f 38f
5:24am 6 7 mph 1024.8mb 51f 38f
5:18am 6
mph
1024.8mb 51f 38f
5:12am 5 6 mph 1024.8mb 51f 38f
5:06am 5 6 mph 1024.8mb 51f 38f
5:00am 5 6 mph 1024.8mb 51f 39f
4:36am 6 7 mph 1024.9mb 51f 40f
4:30am 6 7 mph 1024.9mb 51f 40f
4:24am 7 8 mph 1025mb 51f 39f
4:18am 7 8 mph 1025.1mb 50f 39f
4:12am 7 8 mph 1025.1mb 50f 40f
4:06am 5 6 mph 1025.1mb 50f 40f
4:00am 5 6 mph 1025.1mb 50f 39f
3:36am 7 9 mph 1025mb 51f 37f
3:30am 7 8 mph 1025.1mb 51f 37f
3:24am 7 9 mph 1025.1mb 51f 37f
3:18am 7 9 mph 1025.1mb 51f 38f
3:12am 7 8 mph 1025.2mb 51f 38f
3:06am 7 8 mph 1025.3mb 51f 38f
3:00am 7 8 mph 1025.4mb 51f 38f
2:36am 5 6 mph 1025.8mb 51f 38f
2:30am 5 6 mph 1025.9mb 51f 39f
2:24am 6 8 mph 1025.9mb 51f 40f
2:18am 8 9 mph 1026mb 51f 40f
2:12am 7 8 mph 1025.9mb 51f 40f
2:06am 7 8 mph 1025.9mb 51f 39f
2:00am 7 9 mph 1025.9mb 51f 39f
1:36am 7
mph
1026mb 51f 40f
1:30am 7
mph
1026mb 51f 40f
1:24am 6 7 mph 1026mb 51f 40f
1:18am 6 7 mph 1026mb 51f 40f
1:12am 6 7 mph 1026mb 51f 40f
1:06am 5 6 mph 1026mb 52f 40f
1:00am 5 6 mph 1026mb 52f 40f
12:36am 6 7 mph 1025.9mb 52f 39f
12:30am 6 7 mph 1025.9mb 52f 39f
12:24am 6 7 mph 1025.9mb 52f 40f
12:18am 5 6 mph 1025.9mb 52f 40f
12:12am 5 7 mph 1025.9mb 52f 40f
12:06am 6 7 mph 1025.9mb 52f 40f
12:00am 6 7 mph 1025.9mb 52f 40f
Thu 02/23 11:36pm 5 6 mph 1026mb 52f 41f
11:30pm 3
mph
1026mb 52f 41f
11:24pm 2 3 mph 1026mb 53f 41f
11:18pm  -  2 mph 1025.9mb 53f 40f
11:12pm 1 5 mph 1025.9mb 53f 40f
11:06pm 5 6 mph 1025.8mb 53f 40f
11:00pm 6 7 mph 1025.8mb 53f 40f
10:36pm 7 8 mph 1025.8mb 53f 40f
10:30pm 7 8 mph 1025.9mb 53f 40f
10:24pm 7 8 mph 1025.8mb 53f 40f
10:18pm 7 8 mph 1025.8mb 53f 40f
10:12pm 7 8 mph 1025.8mb 53f 40f
10:06pm 7 8 mph 1025.8mb 53f 40f
10:00pm 6 7 mph 1025.8mb 53f 40f
9:36pm 7 8 mph 1025.7mb 53f 41f
9:30pm 7 8 mph 1025.7mb 53f 41f
9:24pm 6 7 mph 1025.7mb 53f 42f
9:18pm 6 7 mph 1025.7mb 53f 42f
9:12pm 6 7 mph 1025.7mb 53f 42f
9:06pm 3 6 mph 1025.7mb 53f 42f
9:00pm 5 6 mph 1025.6mb 53f 42f
8:36pm 8 9 mph 1025.4mb 53f 42f
8:30pm 7 9 mph 1025.4mb 53f 42f
8:24pm 7 9 mph 1025.4mb 53f 42f
8:18pm 8 9 mph 1025.4mb 52f 43f
8:12pm 8 9 mph 1025.4mb 52f 43f
8:06pm 7 8 mph 1025.4mb 52f 43f
8:00pm 7 9 mph 1025.4mb 52f 43f
7:36pm 13 17 mph 1025.4mb 52f 46f
7:30pm 14 17 mph 1025.3mb 52f 46f
7:24pm 14 18 mph 1025.3mb 52f 46f
7:18pm 13 18 mph 1025.3mb 52f 46f
7:12pm 14 16 mph 1025.2mb 52f 46f
7:06pm 15 18 mph 1025.2mb 52f 46f
7:00pm 15 17 mph 1025.2mb 52f 46f
6:36pm 16 20 mph 1025.1mb 52f 45f
6:30pm 17 21 mph 1025.1mb 52f 45f
6:24pm 17 21 mph 1025.1mb 52f 46f
6:18pm 18 20 mph 1025.1mb 52f 45f
6:12pm 18 21 mph 1025.1mb 52f 45f
6:06pm 17 20 mph 1025mb 52f 45f
6:00pm 16 20 mph 1025.1mb 52f 45f
5:36pm 16 18 mph 1025.1mb 52f 45f
5:30pm 16 18 mph 1025.1mb 52f 45f
5:24pm 15 17 mph 1025mb 52f 45f
5:18pm 15 17 mph 1025mb 52f 45f
5:12pm 16 20 mph 1025.1mb 52f 45f
5:06pm 17 18 mph 1025mb 52f 45f
5:00pm 16 18 mph 1025mb 52f 45f
4:36pm 15 18 mph 1025mb 52f 45f
4:30pm 16 18 mph 1025.1mb 52f 44f
4:24pm 16 21 mph 1025.1mb 52f 44f
4:18pm 16 20 mph 1025.2mb 52f 45f
4:12pm 16 18 mph 1025.2mb 52f 44f
4:06pm 15 20 mph 1025.1mb 52f 44f
4:00pm 16 18 mph 1025.2mb 52f 44f
3:36pm 14 18 mph 1025.2mb 52f 44f
3:30pm 16 18 mph 1025.3mb 52f 44f
3:24pm 15 18 mph 1025.2mb 52f 44f
3:18pm 15 18 mph 1025.3mb 52f 44f
3:12pm 16 18 mph 1025.3mb 52f 44f
3:06pm 15 17 mph 1025.3mb 52f 44f
3:00pm 15 18 mph 1025.3mb 52f 44f
2:36pm 15 17 mph 1025.4mb 52f 44f
2:30pm 13 17 mph 1025.5mb 52f 44f
2:24pm 14 16 mph 1025.5mb 52f 43f
2:18pm 15 16 mph 1025.6mb 52f 43f
2:12pm 14 17 mph 1025.7mb 52f 44f
2:06pm 11 15 mph 1025.7mb 52f 43f
2:00pm 14 15 mph 1025.7mb 52f 43f
1:36pm 11 15 mph 1025.8mb 52f 43f
1:30pm 11 14 mph 1025.9mb 52f 43f
1:24pm 11 14 mph 1025.9mb 52f 43f
1:18pm 11 14 mph 1025.9mb 52f 43f
1:12pm 13 14 mph 1025.9mb 52f 43f
1:06pm 9 11 mph 1026mb 52f 43f
1:00pm 9 11 mph 1026mb 52f 43f
12:36pm 7 8 mph 1026.2mb 52f 42f
12:30pm 7 10 mph 1026.3mb 52f 42f
12:24pm 7 9 mph 1026.3mb 52f 42f
12:18pm 7 10 mph 1026.4mb 52f 42f
12:12pm 9 11 mph 1026.5mb 52f 42f
12:06pm 7 9 mph 1026.5mb 52f 42f
12:00pm 8 10 mph 1026.7mb 52f 41f
11:36am 6 8 mph 1026.9mb 52f 41f
11:30am 5 6 mph 1026.9mb 52f 42f
11:24am 5 6 mph 1027mb 52f 41f
11:18am 5 6 mph 1026.9mb 52f 41f
11:12am 2 5 mph 1027mb 52f 42f
11:06am 3 6 mph 1027mb 52f 41f
11:00am 3 5 mph 1027mb 52f 41f
10:36am 3 5 mph 1027mb 52f 41f
10:30am 2 5 mph 1027mb 52f 41f
10:24am 3 5 mph 1026.9mb 52f 41f
10:18am 2 5 mph 1026.9mb 52f 41f
10:12am 3 5 mph 1026.9mb 52f 42f
10:06am 3 5 mph 1026.8mb 52f 41f
10:00am 3 5 mph 1026.7mb 52f 42f
9:36am  -  2 mph 1026.5mb 52f 43f
9:30am  -  1 mph 1026.4mb 53f 42f
9:24am  -  3 mph 1026.3mb 53f 41f
9:18am 2 5 mph 1026.3mb 53f 41f
9:12am 3
mph
1026.2mb 53f 40f
9:06am 2 5 mph 1026.1mb 53f 40f
9:00am 3 5 mph 1026.1mb 53f 40f
8:36am 5 6 mph 1026mb 53f 39f
8:30am 3 5 mph 1026mb 53f 40f
8:24am 3 5 mph 1026.1mb 53f 39f
8:18am 3 5 mph 1026.1mb 53f 39f
8:12am 5 6 mph 1026.1mb 53f 39f
8:06am 3 6 mph 1026.1mb 53f 39f
8:00am 5 6 mph 1026mb 53f 38f
7:54am 5 6 mph 1026mb 53f 38f
7:48am 5 6 mph 1025.9mb 53f 38f
7:36am 5 6 mph 1025.8mb 53f 38f
7:30am 5 6 mph 1025.7mb 53f 38f
7:24am 6
mph
1025.7mb 53f 38f
7:18am 5 6 mph 1025.7mb 53f 38f
7:12am 3 5 mph 1025.6mb 53f 38f
7:06am 3 5 mph 1025.6mb 53f 37f
7:00am 5
mph
1025.5mb 53f 38f
6:54am 5 6 mph - - 38f
6:48am 5 6 mph 1025.5mb 53f 38f
6:36am 3 6 mph 1025.5mb 53f 38f
6:30am 5 6 mph 1025.5mb 52f 38f
6:24am 6
mph
1025.5mb 52f 38f
6:18am 6 7 mph 1025.4mb 52f 38f
6:12am 7 8 mph 1025.4mb 52f 38f
6:06am 6 8 mph 1025.3mb 52f 38f
6:00am 5 6 mph 1025.3mb 52f 38f
5:54am 5 6 mph 1025.3mb 52f 38f
5:48am 6 9 mph 1025.3mb 52f 38f
5:36am 6 7 mph 1025.3mb 52f 38f
5:30am 6 7 mph 1025.2mb 52f 38f
5:24am 6 7 mph 1025.2mb 52f 38f
5:18am 6 7 mph 1025.1mb 52f 38f
5:12am 6 7 mph 1025.1mb 52f 39f
5:06am 5 6 mph 1025.1mb 51f 39f
5:00am 5 6 mph 1025mb 51f 39f
4:36am 1 3 mph 1025mb 51f 39f
4:30am 1 3 mph 1024.9mb 51f 39f
4:24am 2 5 mph 1025mb 51f 39f
4:18am 2 5 mph 1024.9mb 51f 39f
4:12am 3 8 mph 1025mb 51f 39f
4:06am 6 8 mph 1025mb 51f 38f
4:00am 7 10 mph 1025mb 50f 38f
3:54am 9 14 mph 1025.1mb 50f 38f
3:48am 13 15 mph 1025.1mb 50f 38f
3:36am 3 7 mph 1025.1mb 50f 38f
3:30am 3 7 mph 1025.1mb 50f 38f
3:24am 2 3 mph 1025mb 50f 38f
3:18am 5 6 mph 1024.9mb 50f 37f
3:12am 6 8 mph 1024.8mb 50f 37f
3:06am 7 8 mph 1024.8mb 51f 37f
3:00am 6 8 mph 1024.9mb 51f 37f
2:54am 6 8 mph 1024.9mb 51f 37f
2:48am 6 7 mph 1025.1mb 51f 37f
2:36am 7 8 mph 1025.1mb 51f 37f
2:30am 6 8 mph 1025.3mb 51f 37f
2:24am 7 8 mph 1025.4mb 51f 37f
2:18am 8 9 mph 1025.5mb 51f 37f
2:12am 8 10 mph 1025.4mb 51f 37f
2:06am 10 13 mph 1025.5mb 51f 37f
2:00am 10 14 mph 1025.4mb 51f 38f
1:54am 11 14 mph 1025.5mb 51f 38f
1:48am 7 10 mph 1025.5mb 51f 38f
12:54am 8 10 mph 1025mb 51f 39f
12:48am 8 10 mph 1025.1mb 51f 39f
Wed 02/22 11:54pm 7 9 mph 1025.4mb 51f 39f
11:48pm 9 10 mph 1025.4mb 51f 38f
10:54pm 9 13 mph 1025.7mb 52f 39f
10:48pm 9 13 mph 1025.6mb 52f 39f
9:54pm 10 15 mph 1025.3mb 53f 42f
9:48pm 9 14 mph 1025.2mb 53f 41f
8:54pm 7 13 mph 1024.6mb 53f 41f
8:48pm 16 22 mph - - 42f
7:54pm 18 23 mph 1024.5mb 53f 45f
7:48pm 22 26 mph 1024.5mb 53f 45f
4:48pm  -  mph 1024.8mb 52f -
3:54pm  -  mph 1025mb 52f -
3:48pm  -  mph 1025mb 52f -
2:54pm 20 26 mph 1025.4mb 52f 42f
2:48pm 22 28 mph 1025.5mb 52f 42f
1:54pm 7 11 mph 1025.2mb 52f 43f
1:48pm 8 16 mph 1025.3mb 52f 43f
10:54am 18 23 mph 1025.8mb 52f 47f
10:48am 17 20 mph 1025.8mb 52f 47f
9:54am 17 29 mph 1025.7mb 52f 44f
9:48am 21 26 mph 1025.7mb 52f 45f
8:54am 15 18 mph 1025.8mb 52f 44f
8:48am 18 23 mph 1025.7mb 52f 45f
7:54am 14 17 mph 1025.4mb 53f 47f
7:48am 15 18 mph 1025.4mb 53f 47f
6:54am 10 13 mph 1025.3mb 53f 45f
6:48am 10 14 mph 1025.2mb 53f 45f
5:54am 8 9 mph 1025.2mb 53f 46f
5:48am 8 13 mph 1025.1mb 53f 46f
4:54am 14 16 mph 1025.1mb 53f 47f
4:48am 11 14 mph 1025.1mb 53f 47f
2:36am 22 24 mph 1025.1mb 52f 47f
2:30am 20 22 mph 1025.2mb 52f 48f
2:24am 18 21 mph 1025.2mb 52f 48f
2:18am 16 18 mph 1025.3mb 52f 48f
2:12am 18 25 mph 1025.3mb 52f 47f
2:06am 22 25 mph 1025.3mb 52f 48f
2:00am 17 20 mph 1025.2mb 52f 48f
1:36am 16 20 mph 1025.1mb 52f 48f
1:30am 13 17 mph 1025mb 52f 48f
1:24am 13 16 mph 1025mb 52f 48f
1:18am 15 16 mph 1025mb 52f 48f
1:12am 16 21 mph 1025mb 52f 48f
1:06am 15 20 mph 1025mb 52f 48f
1:00am 18 21 mph 1024.9mb 52f 48f
12:36am 18 21 mph 1024.8mb 52f 49f
12:30am 18 22 mph 1024.7mb 52f 48f
12:24am 20 22 mph 1024.7mb 52f 49f
12:18am 20 22 mph 1024.7mb 52f 49f
12:12am 17 20 mph 1024.6mb 52f 49f
12:06am 18 22 mph 1024.5mb 52f 49f
12:00am 18 21 mph 1024.5mb 52f 49f
Tue 02/21 11:36pm 16 21 mph 1024.2mb 52f 49f
11:30pm 18 23 mph 1024.2mb 52f 49f
11:24pm 21 24 mph 1024.2mb 52f 49f
11:18pm 22 25 mph 1024.1mb 52f 48f
11:12pm 21 22 mph 1024.2mb 52f 48f
11:06pm 15 18 mph 1024.1mb 52f 48f
11:00pm 13 17 mph 1024.1mb 53f 48f
10:36pm 16 18 mph 1024.1mb 52f 49f
10:30pm 17 21 mph 1024.1mb 53f 49f
10:24pm 17 21 mph 1024.1mb 53f 49f
10:18pm 8 10 mph 1024mb 53f 48f
10:12pm 7 9 mph 1024mb 53f 48f
10:06pm 8 11 mph 1023.9mb 53f 48f
10:00pm 11 20 mph 1023.9mb 53f 48f
9:36pm 9 11 mph 1023.6mb 53f 48f
9:30pm 11 15 mph 1023.7mb 53f 48f
9:24pm 15 17 mph 1023.6mb 53f 48f
9:18pm 16 22 mph 1023.6mb 53f 47f
9:12pm 20 24 mph 1023.7mb 53f 48f
9:06pm 24 30 mph 1023.6mb 53f 48f
9:00pm 18 28 mph 1023.5mb 53f 50f
8:36pm 15 16 mph 1023.3mb 53f 50f
8:30pm 16 18 mph 1023.2mb 53f 50f
8:24pm 17 18 mph 1023.2mb 53f 50f
8:18pm 16 17 mph 1023.1mb 53f 50f
8:12pm 13 14 mph 1023.1mb 53f 50f
8:06pm 14 17 mph 1023.1mb 53f 50f
8:00pm 16 18 mph 1023.1mb 53f 50f
7:36pm 15 17 mph 1023mb 53f 50f
7:30pm 15 17 mph 1023mb 53f 50f
7:24pm 15 17 mph 1023mb 53f 50f
7:18pm 16 20 mph 1023mb 53f 50f
7:12pm 17 18 mph 1022.9mb 53f 50f
7:06pm 15 18 mph 1023mb 53f 50f
7:00pm 16 18 mph 1023mb 53f 50f
6:36pm 18 21 mph 1022.8mb 53f 50f
6:30pm 18 21 mph 1022.7mb 52f 51f
6:24pm 18 21 mph 1022.7mb 52f 50f
6:18pm 17 20 mph 1022.6mb 52f 51f
6:12pm 16 20 mph 1022.6mb 52f 50f
6:06pm 14 16 mph 1022.6mb 52f 50f
6:00pm 14 16 mph 1022.6mb 52f 50f
5:36pm 16 23 mph 1022.4mb 52f 49f
5:30pm 16 20 mph 1022.4mb 52f 51f
5:24pm 17 20 mph 1022.4mb 52f 50f
5:18pm 17 21 mph 1022.4mb 52f 50f
5:12pm 20 21 mph 1022.4mb 52f 50f
5:06pm 16 20 mph 1022.5mb 52f 51f
5:00pm 15 20 mph 1022.4mb 52f 51f
4:36pm 16 20 mph 1022.4mb 52f 51f
4:30pm 17 20 mph 1022.4mb 52f 51f
4:24pm 16 21 mph 1022.3mb 52f 51f
4:18pm 13 17 mph 1022.3mb 52f 51f
4:12pm 14 20 mph 1022.3mb 52f 51f
4:06pm 17 20 mph 1022.4mb 52f 51f
4:00pm 15 21 mph 1022.4mb 52f 52f
3:36pm 11 15 mph 1022.4mb 52f 52f
3:30pm 11 15 mph 1022.3mb 52f 52f
3:24pm 13 17 mph 1022.3mb 52f 51f
3:18pm 11 15 mph 1022.3mb 52f 52f
3:12pm 15 18 mph 1022.4mb 52f 51f
3:06pm 11 16 mph 1022.3mb 52f 51f
3:00pm 14 17 mph 1022.3mb 52f 51f
2:36pm 13 16 mph 1022.3mb 52f 51f
2:30pm 13 16 mph 1022.3mb 52f 50f
2:24pm 15 20 mph 1022.3mb 52f 50f
2:18pm 17 21 mph 1022.3mb 52f 49f
2:12pm 22 25 mph 1022.3mb 52f 49f
2:06pm 24 31 mph 1022.3mb 52f 50f
2:00pm 26 31 mph 1022.3mb 52f 50f
1:36pm 15 21 mph 1022.1mb 52f 52f
1:30pm 15 18 mph 1022.1mb 52f 51f
1:24pm 14 21 mph 1022.2mb 52f 51f
1:18pm 14 18 mph 1022.2mb 52f 51f
1:12pm 15 21 mph 1022.2mb 52f 51f
1:06pm 16 22 mph 1022.2mb 52f 51f
1:00pm 20 24 mph 1022.2mb 52f 51f
12:36pm 22 25 mph 1022.2mb 52f 51f
12:30pm 22 26 mph 1022.1mb 52f 52f
12:24pm 17 25 mph 1022.2mb 52f 52f
12:18pm 20 25 mph 1022.2mb 52f 52f
12:12pm 16 28 mph 1022.2mb 52f 52f
12:06pm 21 26 mph 1022.1mb 52f 52f
12:00pm 22 29 mph 1022.2mb 52f 52f
11:36am 22 29 mph 1022.2mb 52f 52f
11:30am 24 29 mph 1022.1mb 52f 52f
11:24am 25 29 mph 1022.1mb 52f 51f
11:18am 24 30 mph 1022.1mb 52f 51f
11:12am 28 30 mph 1022mb 52f 51f
11:06am 24 29 mph 1021.9mb 52f 51f
11:00am 22 26 mph 1021.8mb 52f 51f
10:36am 23 25 mph 1021.6mb 52f 51f
10:30am 14 16 mph 1021.5mb 52f 50f
10:24am 15 22 mph 1021.5mb 52f 50f
10:18am 20 22 mph 1021.5mb 52f 51f
10:12am 22 29 mph 1021.4mb 52f 51f
10:06am 22 26 mph 1021.2mb 52f 51f
10:00am 20 22 mph 1021.1mb 52f 51f
9:36am 18 26 mph 1020.8mb 52f 49f
9:30am 9 13 mph 1020.6mb 52f 49f
9:24am 10 11 mph 1020.6mb 52f 49f
9:18am 9 11 mph 1020.5mb 52f 49f
9:12am 10
mph
1020.4mb 52f 48f
9:06am 10 11 mph 1020.4mb 53f 48f
9:00am 10 13 mph 1020.3mb 53f 48f
8:36am 16 22 mph 1019.8mb 53f 48f
8:30am 20 22 mph 1019.7mb 53f 49f
8:24am 20 22 mph 1019.6mb 53f 48f
8:18am 20 23 mph 1019.3mb 53f 48f
8:12am 17 22 mph 1019.2mb 53f 48f
8:06am 18 22 mph 1019.2mb 53f 48f
8:00am 18 23 mph 1019.1mb 53f 47f
7:36am 22 33 mph 1018.7mb 53f 46f
7:30am 26 29 mph 1018.6mb 53f 48f
7:24am 25 31 mph 1018.5mb 53f 47f
7:18am 15 17 mph 1018.3mb 53f 48f
7:12am 14 16 mph 1018.1mb 53f 48f
7:06am 14 16 mph 1018.1mb 53f 47f
7:00am 14 17 mph 1018mb 53f 47f
6:36am 17 22 mph 1017.6mb 53f 48f
6:30am 21 28 mph 1017.5mb 53f 48f
6:24am 24 28 mph 1017.4mb 53f 48f
6:18am 23 28 mph 1017.3mb 53f 49f
6:12am 18 25 mph 1017.1mb 53f 49f
6:06am 18 23 mph 1017mb 53f 48f
6:00am 20 22 mph 1016.9mb 53f 49f
5:36am 28 31 mph 1016.7mb 53f 49f
5:30am 23 29 mph 1016.6mb 53f 49f
5:24am 20 23 mph 1016.5mb 53f 49f
5:18am 17 23 mph 1016.3mb 53f 49f
5:12am 20 22 mph 1016.3mb 53f 49f
5:06am 18 21 mph 1016.2mb 53f 48f
5:00am 16 18 mph 1016.1mb 53f 48f
4:36am 23 26 mph 1015.6mb 53f 49f
4:30am 23 28 mph 1015.5mb 52f 49f
4:24am 21 25 mph 1015.4mb 52f 49f
4:18am 22 24 mph 1015.3mb 52f 48f
4:12am 18 25 mph 1015.3mb 52f 48f
4:06am 20 24 mph 1015.2mb 52f 48f
4:00am 14 29 mph 1015.1mb 52f 48f
3:36am 16 21 mph 1014.6mb 52f 49f
3:30am 20 32 mph 1014.5mb 52f 49f
3:24am 22 30 mph 1014.3mb 52f 49f
3:18am 20 28 mph 1014.1mb 52f 49f
3:12am 20 26 mph 1014mb 52f 49f
3:06am 17 28 mph 1014mb 52f 49f
3:00am 25 38 mph 1013.9mb 52f 49f
2:54am 25 30 mph 1013.7mb 52f 49f
2:48am 23 31 mph 1013.6mb 52f 49f
2:36am 22 44 mph 1013.3mb 52f 48f
2:30am 24 32 mph 1013mb 52f 49f
2:24am 29 40 mph 1012.8mb 52f 49f
2:18am 28 43 mph 1012.6mb 52f 49f
2:12am 33 41 mph 1012.4mb 52f 49f
2:06am 36 41 mph 1012.2mb 52f 49f
2:00am 26 45 mph 1012.1mb 52f 49f
1:54am 33 43 mph 1011.9mb 52f 49f
1:48am 31 43 mph 1011.7mb 52f 49f
1:36am 26 41 mph 1011.1mb 52f 50f
1:30am 29 40 mph 1010.9mb 52f 50f
1:24am 33 46 mph 1010.8mb 52f 49f
1:18am 31 44 mph 1010.6mb 52f 51f
1:12am 33 44 mph 1010.2mb 52f 50f
1:06am 33 40 mph 1010mb 52f 50f
1:00am 36 45 mph 1009.7mb 52f 50f
12:54am 34 48 mph 1009.3mb 52f 50f
12:48am 37 52 mph 1008.9mb 52f 50f
12:36am 33 48 mph 1007.9mb 52f 51f
12:30am 36 59 mph 1007.4mb 52f 51f
12:24am 52 61 mph 1006.8mb 52f 52f
12:18am 46 60 mph 1006.4mb 52f 51f
12:12am 52 61 mph 1006.2mb 52f 51f
12:06am 47 53 mph 1006mb 52f 53f
12:00am 38 53 mph 1006mb 52f 53f
Mon 02/20 11:54pm 30 39 mph 1005.8mb 52f 53f
11:48pm 29 36 mph 1005.7mb 52f 53f
11:36pm 38 53 mph 1005.4mb 53f 54f
11:30pm 39 48 mph 1005.2mb 53f 54f
11:24pm 40 47 mph 1005.1mb 53f 53f
11:18pm 33 43 mph 1005.2mb 53f 53f
11:12pm 36 47 mph 1005.1mb 53f 51f
11:06pm 46 54 mph 1004.9mb 53f 51f
11:00pm 31 39 mph 1004.8mb 52f 54f
10:54pm 16 23 mph 1004.8mb 52f 54f
10:48pm 16 20 mph 1004.7mb 52f 54f
10:36pm 15 17 mph 1004.7mb 52f 54f
10:30pm 15 20 mph 1004.8mb 53f 54f
10:24pm 14 21 mph 1004.6mb 53f 54f
10:18pm 14 22 mph 1004.6mb 53f 55f
10:12pm 21 29 mph 1004.8mb 53f 55f
10:06pm 21 24 mph 1004.7mb 53f 55f
10:00pm 18 23 mph 1004.8mb 53f 55f
9:54pm 22 28 mph 1004.9mb 53f 54f
9:48pm 22 31 mph 1004.7mb 53f 54f
9:36pm 24 31 mph 1004.8mb 53f 55f
9:30pm 30 37 mph 1004.8mb 53f 56f
9:24pm 24 28 mph 1004.8mb 53f 55f
9:18pm 20 32 mph 1004.8mb 53f 55f
9:12pm 28 33 mph 1004.7mb 53f 55f
9:06pm 30 41 mph 1004.5mb 53f 55f
9:00pm 17 32 mph 1004.4mb 53f 55f
8:54pm 30 38 mph 1004.4mb 53f 55f
8:48pm 17 21 mph 1004.3mb 53f 54f
8:36pm 14 17 mph 1004.2mb 53f 54f
8:30pm 17 21 mph 1004mb 53f 54f
8:24pm 16 20 mph 1003.9mb 53f 54f
8:18pm 14 17 mph 1003.8mb 53f 54f
8:12pm 14 17 mph 1003.8mb 53f 54f
8:06pm 16 20 mph 1003.6mb 53f 54f
8:00pm 17 21 mph 1003.6mb 53f 54f
7:54pm 16 20 mph 1003.5mb 53f 54f
7:48pm 15 18 mph 1003.6mb 52f 54f
7:36pm 20 23 mph 1003.6mb 53f 55f
7:30pm 16 22 mph 1003.6mb 53f 54f
7:24pm 20 23 mph 1003.5mb 53f 54f
7:18pm 14 16 mph 1003.5mb 53f 54f
7:12pm 13 16 mph 1003.4mb 53f 54f
7:06pm 13 15 mph 1003.3mb 53f 53f
7:00pm 13 15 mph 1003.4mb 53f 53f
6:54pm 14 21 mph 1003.5mb 53f 53f
6:48pm 13 15 mph 1003.5mb 53f 53f
6:36pm 8 11 mph 1003.7mb 53f 54f
6:30pm 14 21 mph 1003.6mb 53f 55f
6:24pm 11 17 mph 1003.5mb 53f 55f
6:18pm 11 15 mph 1003.7mb 53f 54f
6:12pm 10 18 mph 1003.5mb 53f 54f
6:06pm 9 11 mph 1003.6mb 53f 54f
6:00pm 11 15 mph 1003.8mb 53f 54f
5:54pm 14 15 mph 1003.8mb 52f 54f
5:48pm 13 15 mph 1003.8mb 52f 53f
5:36pm 13 17 mph 1004mb 52f 53f
5:30pm 11 20 mph 1004mb 52f 53f
5:24pm 22 36 mph 1004mb 52f 53f
5:18pm 31 39 mph 1004.2mb 52f 53f
5:12pm 30 33 mph 1004.2mb 52f 52f
5:06pm 14 24 mph 1004.4mb 52f 52f
5:00pm 3 6 mph 1004.3mb 52f 52f
4:54pm 2 3 mph 1004.3mb 52f 51f
4:48pm 1 3 mph 1004.2mb 52f 51f
4:36pm 5 6 mph 1004mb 52f 51f